Time;durP1;ratioP1;P1;durP2;ratioP2;P2;SDS_P1;SDS_P2;PMS_P1;PMS_P2;Temp;Humidity;BMP_temperature;BMP_pressure;BME280_temperature;BME280_humidity;BME280_pressure;Samples;Min_cycle;Max_cycle;Signal;HPM_P1;HPM_P2
2022/05/17 00:00:14;;;;;;;4.93;4.03;;;14.60;99.90;;;;;;4898666;29;20459;-89
2022/05/17 00:02:40;;;;;;;4.93;4.20;;;14.60;99.90;;;;;;4914974;28;20191;-87
2022/05/17 00:05:06;;;;;;;4.70;3.80;;;14.60;99.90;;;;;;4901594;29;20495;-86
2022/05/17 00:07:31;;;;;;;7.10;3.50;;;14.50;99.90;;;;;;4917415;28;20183;-86
2022/05/17 00:09:57;;;;;;;4.40;4.00;;;14.50;99.90;;;;;;4908688;29;20454;-87
2022/05/17 00:12:22;;;;;;;5.60;4.20;;;14.40;99.90;;;;;;4915619;29;20282;-87
2022/05/17 00:15:03;;;;;;;4.70;4.30;;;14.40;99.90;;;;;;4917009;29;20188;-88
2022/05/17 00:17:29;;;;;;;7.37;4.33;;;14.50;99.90;;;;;;4899275;29;20463;-86
2022/05/17 00:19:54;;;;;;;5.10;4.30;;;14.40;99.90;;;;;;4903115;29;20483;-86
2022/05/17 00:22:22;;;;;;;4.80;4.30;;;14.30;99.90;;;;;;4911673;28;20176;-86
2022/05/17 00:24:50;;;;;;;5.40;4.90;;;14.20;99.90;;;;;;4915908;28;20805;-86
2022/05/17 00:27:16;;;;;;;5.13;4.63;;;14.30;99.90;;;;;;4920337;28;20443;-86
2022/05/17 00:29:41;;;;;;;6.10;4.30;;;14.30;99.90;;;;;;4927412;28;20184;-86
2022/05/17 00:32:07;;;;;;;6.13;4.20;;;14.30;99.90;;;;;;4913037;29;20709;-85
2022/05/17 00:34:35;;;;;;;5.53;4.30;;;14.30;99.90;;;;;;4929741;28;20187;-87
2022/05/17 00:37:01;;;;;;;4.47;4.07;;;14.30;99.90;;;;;;4912854;28;20471;-86
2022/05/17 00:39:26;;;;;;;7.03;4.20;;;14.30;99.90;;;;;;4915662;28;20569;-86
2022/05/17 00:41:52;;;;;;;5.63;4.63;;;14.30;99.90;;;;;;4907418;29;20915;-86
2022/05/17 00:47:14;;;;;;;5.07;4.47;;;14.20;99.90;;;;;;4908408;29;20194;-86
2022/05/17 00:49:52;;;;;;;4.10;3.80;;;14.10;99.90;;;;;;4893259;29;20462;-86
2022/05/17 00:52:31;;;;;;;5.27;4.13;;;14.10;99.90;;;;;;4907256;28;20451;-86
2022/05/17 00:55:07;;;;;;;6.73;4.37;;;14.20;99.90;;;;;;4913033;28;20530;-86
2022/05/17 00:57:46;;;;;;;5.13;4.10;;;14.20;99.90;;;;;;4917701;28;20439;-86
2022/05/17 01:00:15;;;;;;;6.10;3.67;;;14.10;99.90;;;;;;4913680;28;21001;-85
2022/05/17 01:02:45;;;;;;;5.10;4.20;;;14.10;99.90;;;;;;4920482;28;20439;-85
2022/05/17 01:05:11;;;;;;;4.30;3.90;;;14.00;99.90;;;;;;4915703;28;20443;-86
2022/05/17 01:07:49;;;;;;;4.07;3.37;;;13.90;99.90;;;;;;4924159;28;20514;-86
2022/05/17 01:10:14;;;;;;;5.23;3.77;;;13.90;99.90;;;;;;4920067;28;20451;-86
2022/05/17 01:12:40;;;;;;;6.27;4.67;;;14.00;99.90;;;;;;4903580;29;20450;-86
2022/05/17 01:15:09;;;;;;;6.50;4.20;;;13.90;99.90;;;;;;4900977;29;20865;-86
2022/05/17 01:17:38;;;;;;;6.17;4.50;;;13.90;99.90;;;;;;4929231;28;20462;-86
2022/05/17 01:20:07;;;;;;;5.53;4.60;;;13.90;99.90;;;;;;4911392;29;20459;-86
2022/05/17 01:22:33;;;;;;;5.70;5.00;;;13.90;99.90;;;;;;4917933;28;20450;-87
2022/05/17 01:24:59;;;;;;;5.40;4.67;;;13.80;99.90;;;;;;4918249;28;20495;-86
2022/05/17 01:27:27;;;;;;;5.27;4.47;;;13.80;99.90;;;;;;4920089;28;21132;-86
2022/05/17 01:29:53;;;;;;;4.93;4.37;;;13.80;99.90;;;;;;4895845;29;20634;-86
2022/05/17 01:32:18;;;;;;;6.70;4.87;;;13.80;99.90;;;;;;4922711;28;20780;-86
2022/05/17 01:34:44;;;;;;;5.80;5.13;;;13.80;99.90;;;;;;4919414;28;20454;-86
2022/05/17 01:37:12;;;;;;;5.30;4.80;;;13.70;99.90;;;;;;4927772;28;20339;-86
2022/05/17 01:39:38;;;;;;;7.73;4.60;;;13.70;99.90;;;;;;4919442;28;20247;-86
2022/05/17 01:42:04;;;;;;;5.83;4.67;;;13.70;99.90;;;;;;4924147;28;20440;-86
2022/05/17 01:44:31;;;;;;;5.93;4.70;;;13.70;99.90;;;;;;4921211;28;20459;-86
2022/05/17 01:46:56;;;;;;;5.97;4.97;;;13.60;99.90;;;;;;4921542;28;20969;-86
2022/05/17 01:49:24;;;;;;;7.00;5.20;;;13.60;99.90;;;;;;4910567;29;20455;-86
2022/05/17 01:51:50;;;;;;;7.30;4.87;;;13.50;99.90;;;;;;4915986;28;20331;-86
2022/05/17 01:54:15;;;;;;;5.80;5.03;;;13.50;99.90;;;;;;4915252;28;20459;-86
2022/05/17 01:56:41;;;;;;;6.20;5.13;;;13.50;99.90;;;;;;4929515;28;20282;-85
2022/05/17 01:59:06;;;;;;;6.90;5.13;;;13.50;99.90;;;;;;4918834;28;20571;-85
2022/05/17 02:01:32;;;;;;;8.67;5.00;;;13.50;99.90;;;;;;4923069;28;20326;-85
2022/05/17 02:03:58;;;;;;;7.60;5.37;;;13.50;99.90;;;;;;4905388;29;20922;-86
2022/05/17 02:06:24;;;;;;;5.60;5.10;;;13.60;99.90;;;;;;4917161;28;20835;-86
2022/05/17 02:08:50;;;;;;;7.70;5.13;;;13.50;99.90;;;;;;4900112;29;20628;-86
2022/05/17 02:11:15;;;;;;;5.83;5.17;;;13.40;99.90;;;;;;4919976;28;20448;-85
2022/05/17 02:13:44;;;;;;;7.83;5.07;;;13.40;99.90;;;;;;4918836;28;20199;-85
2022/05/17 02:16:10;;;;;;;5.50;5.00;;;13.40;99.90;;;;;;4913681;28;20192;-86
2022/05/17 02:18:36;;;;;;;5.60;5.13;;;13.30;99.90;;;;;;4918218;29;21234;-86
2022/05/17 02:21:03;;;;;;;6.73;4.63;;;13.30;99.90;;;;;;4888136;29;20549;-86
2022/05/17 02:23:29;;;;;;;6.10;5.50;;;13.20;99.90;;;;;;4916860;28;21892;-85
2022/05/17 02:25:55;;;;;;;5.43;4.97;;;13.20;99.90;;;;;;4920217;28;20988;-85
2022/05/17 02:28:20;;;;;;;6.23;4.23;;;13.20;99.90;;;;;;4928280;28;20206;-85
2022/05/17 02:30:46;;;;;;;6.10;5.10;;;13.10;99.90;;;;;;4936382;28;20440;-85
2022/05/17 02:33:13;;;;;;;5.20;4.67;;;13.10;99.90;;;;;;4923011;29;20242;-86
2022/05/17 02:35:39;;;;;;;5.10;4.60;;;13.00;99.90;;;;;;4912632;29;20466;-84
2022/05/17 02:38:05;;;;;;;6.53;4.67;;;13.00;99.90;;;;;;4911086;29;20558;-85
2022/05/17 02:40:31;;;;;;;4.70;4.33;;;12.90;99.90;;;;;;4923211;28;21131;-84
2022/05/17 02:42:56;;;;;;;4.40;3.97;;;12.90;99.90;;;;;;4904714;29;20445;-85
2022/05/17 02:45:22;;;;;;;6.80;4.70;;;12.90;99.90;;;;;;4899117;29;20200;-84
2022/05/17 02:47:52;;;;;;;4.93;4.43;;;12.90;99.90;;;;;;4917405;28;20234;-85
2022/05/17 02:50:18;;;;;;;5.50;5.00;;;12.90;99.90;;;;;;4909471;28;20188;-84
2022/05/17 02:52:44;;;;;;;4.93;4.50;;;12.90;99.90;;;;;;4912945;28;20451;-84
2022/05/17 02:55:09;;;;;;;6.60;5.33;;;12.90;99.90;;;;;;4908246;29;20812;-85
2022/05/17 02:57:35;;;;;;;5.70;5.10;;;12.90;99.90;;;;;;4918834;28;20194;-84
2022/05/17 03:00:01;;;;;;;4.80;4.40;;;12.80;99.90;;;;;;4916294;28;20246;-85
2022/05/17 03:02:27;;;;;;;6.43;4.90;;;12.80;99.90;;;;;;4902021;29;21501;-84
2022/05/17 03:04:53;;;;;;;5.57;4.97;;;12.80;99.90;;;;;;4921291;28;20555;-84
2022/05/17 03:07:18;;;;;;;4.93;4.43;;;12.80;99.90;;;;;;4906538;29;20199;-84
2022/05/17 03:09:44;;;;;;;5.67;5.17;;;12.90;99.90;;;;;;4923489;28;20607;-84
2022/05/17 03:12:10;;;;;;;6.73;4.77;;;12.90;99.90;;;;;;4926856;28;20195;-84
2022/05/17 03:14:36;;;;;;;5.10;4.70;;;12.90;99.90;;;;;;4923824;28;20199;-85
2022/05/17 03:17:09;;;;;;;5.07;4.57;;;12.90;99.90;;;;;;4925991;28;20440;-85
2022/05/17 03:19:35;;;;;;;6.77;4.80;;;12.90;99.90;;;;;;4934265;28;20542;-84
2022/05/17 03:22:00;;;;;;;5.40;4.90;;;12.90;99.90;;;;;;4909142;29;20966;-85
2022/05/17 03:24:26;;;;;;;6.13;4.87;;;12.90;99.90;;;;;;4906037;29;20219;-85
2022/05/17 03:26:51;;;;;;;6.37;4.40;;;12.90;99.90;;;;;;4917717;28;20187;-85
2022/05/17 03:29:17;;;;;;;5.73;5.13;;;12.90;99.90;;;;;;4921001;28;20207;-85
2022/05/17 03:31:42;;;;;;;5.73;5.23;;;12.90;99.90;;;;;;4921054;28;21409;-86
2022/05/17 03:34:09;;;;;;;6.53;5.33;;;12.90;99.90;;;;;;4926239;28;20190;-87
2022/05/17 03:36:34;;;;;;;5.90;5.30;;;12.90;99.90;;;;;;4904163;29;20230;-85
2022/05/17 03:39:00;;;;;;;6.43;4.50;;;12.80;99.90;;;;;;4925783;28;20479;-86
2022/05/17 03:41:28;;;;;;;5.80;5.30;;;12.80;99.90;;;;;;4907120;29;20267;-86
2022/05/17 03:43:54;;;;;;;5.40;4.90;;;12.70;99.90;;;;;;4899733;28;20202;-86
2022/05/17 03:46:20;;;;;;;5.67;5.17;;;12.70;99.90;;;;;;4918111;28;20455;-86
2022/05/17 03:48:46;;;;;;;5.30;4.80;;;12.70;99.90;;;;;;4922667;28;20191;-86
2022/05/17 03:51:14;;;;;;;5.70;5.20;;;12.70;99.90;;;;;;4927747;28;20506;-86
2022/05/17 03:53:39;;;;;;;5.13;4.73;;;12.70;99.90;;;;;;4910994;29;20875;-86
2022/05/17 03:56:05;;;;;;;5.90;5.23;;;12.60;99.90;;;;;;4916025;28;20458;-86
2022/05/17 03:58:31;;;;;;;5.67;5.17;;;12.50;99.90;;;;;;4918781;28;20219;-86
2022/05/17 04:00:57;;;;;;;6.00;5.40;;;12.60;99.90;;;;;;4923398;28;20826;-85
2022/05/17 04:03:23;;;;;;;6.90;6.30;;;12.60;99.90;;;;;;4905465;29;20254;-86
2022/05/17 04:05:48;;;;;;;6.70;5.50;;;12.60;99.90;;;;;;4927979;28;20431;-85
2022/05/17 04:08:14;;;;;;;7.40;5.27;;;12.70;99.90;;;;;;4922103;28;20238;-85
2022/05/17 04:10:40;;;;;;;7.13;4.83;;;12.70;99.90;;;;;;4902554;29;20228;-85
2022/05/17 04:13:06;;;;;;;5.60;5.10;;;12.70;99.90;;;;;;4916771;28;20658;-84
2022/05/17 04:15:31;;;;;;;6.83;5.97;;;12.70;99.90;;;;;;4909390;29;20183;-85
2022/05/17 04:17:57;;;;;;;6.37;5.77;;;12.70;99.90;;;;;;4904331;29;21101;-85
2022/05/17 04:20:23;;;;;;;5.80;5.27;;;12.80;99.90;;;;;;4918132;28;20566;-86
2022/05/17 04:22:50;;;;;;;6.57;6.00;;;12.70;99.90;;;;;;4917682;29;20188;-85
2022/05/17 04:25:17;;;;;;;8.60;5.37;;;12.80;99.90;;;;;;4933587;28;20459;-85
2022/05/17 04:27:43;;;;;;;6.60;5.87;;;12.90;99.90;;;;;;4927180;28;20533;-85
2022/05/17 04:30:10;;;;;;;6.37;5.80;;;13.00;99.90;;;;;;4940692;28;20519;-85
2022/05/17 04:32:35;;;;;;;6.53;5.93;;;13.00;99.90;;;;;;4916955;29;20202;-85
2022/05/17 04:35:01;;;;;;;6.00;5.50;;;13.00;99.90;;;;;;4920412;29;20443;-86
2022/05/17 04:37:28;;;;;;;6.70;6.03;;;13.00;99.90;;;;;;4926803;29;20188;-85
2022/05/17 04:39:54;;;;;;;6.83;6.23;;;13.00;99.90;;;;;;4925904;29;20286;-85
2022/05/17 04:42:19;;;;;;;6.30;5.70;;;13.00;99.90;;;;;;4933390;28;20451;-85
2022/05/17 04:44:45;;;;;;;7.17;6.17;;;13.00;99.90;;;;;;4925110;29;20191;-85
2022/05/17 04:47:10;;;;;;;7.87;7.07;;;13.10;99.90;;;;;;4928235;29;20571;-86
2022/05/17 04:49:37;;;;;;;9.10;6.40;;;13.10;99.90;;;;;;4940586;28;20191;-86
2022/05/17 04:52:03;;;;;;;7.17;6.20;;;13.10;99.90;;;;;;4929333;29;20274;-85
2022/05/17 04:54:43;;;;;;;9.73;7.30;;;13.20;99.90;;;;;;4942487;28;20449;-85
2022/05/17 04:57:17;;;;;;;7.93;6.47;;;13.20;99.90;;;;;;4924968;29;20532;-85
2022/05/17 04:59:43;;;;;;;7.00;6.30;;;13.20;99.90;;;;;;4927482;29;20657;-85
2022/05/17 05:02:09;;;;;;;10.60;7.13;;;13.30;99.90;;;;;;4943928;28;20200;-85
2022/05/17 05:04:37;;;;;;;7.90;6.37;;;13.30;99.90;;;;;;4944388;28;20270;-84
2022/05/17 05:07:04;;;;;;;9.80;6.93;;;13.30;99.90;;;;;;4922664;29;20450;-84
2022/05/17 05:09:30;;;;;;;7.03;6.33;;;13.30;99.90;;;;;;4909944;29;20443;-84
2022/05/17 05:11:55;;;;;;;9.63;6.20;;;13.30;99.90;;;;;;4916620;28;20435;-87
2022/05/17 05:14:21;;;;;;;9.20;6.60;;;13.30;99.90;;;;;;4918605;28;20453;-86
2022/05/17 05:16:46;;;;;;;8.20;6.47;;;13.40;99.90;;;;;;4904824;29;20219;-84
2022/05/17 05:19:12;;;;;;;6.87;6.27;;;13.60;99.90;;;;;;4908596;29;20800;-83
2022/05/17 05:21:37;;;;;;;7.40;6.67;;;13.60;99.90;;;;;;4917253;28;20183;-83
2022/05/17 05:24:06;;;;;;;8.33;7.07;;;13.70;99.90;;;;;;4928654;28;20188;-86
2022/05/17 05:26:33;;;;;;;8.27;7.57;;;13.80;99.90;;;;;;4927755;28;20184;-84
2022/05/17 05:28:58;;;;;;;8.70;6.13;;;13.90;99.90;;;;;;4907549;29;20451;-86
2022/05/17 05:31:24;;;;;;;6.00;5.43;;;14.00;99.90;;;;;;4905717;29;20445;-85
2022/05/17 05:33:49;;;;;;;8.57;6.60;;;14.00;99.90;;;;;;4922643;28;20195;-85
2022/05/17 05:36:15;;;;;;;9.87;6.97;;;14.10;99.90;;;;;;4910155;29;20192;-84
2022/05/17 05:38:41;;;;;;;7.33;6.60;;;14.20;99.90;;;;;;4925740;28;20218;-84
2022/05/17 05:41:10;;;;;;;7.23;6.60;;;14.30;99.90;;;;;;4934886;28;20657;-84
2022/05/17 05:43:36;;;;;;;9.17;7.83;;;14.30;99.90;;;;;;4936249;28;20453;-84
2022/05/17 05:46:01;;;;;;;7.00;6.30;;;14.30;99.90;;;;;;4929225;28;20454;-84
2022/05/17 05:48:27;;;;;;;7.33;6.63;;;14.40;99.90;;;;;;4937967;28;20187;-83
2022/05/17 05:50:53;;;;;;;7.83;7.03;;;14.40;99.90;;;;;;4939354;28;20270;-84
2022/05/17 05:53:20;;;;;;;6.80;6.20;;;14.40;99.90;;;;;;4921967;29;20203;-85
2022/05/17 05:55:50;;;;;;;9.90;7.50;;;14.60;99.90;;;;;;4926229;29;20447;-84
2022/05/17 05:58:16;;;;;;;10.67;6.63;;;14.70;99.90;;;;;;4928374;29;20832;-84
2022/05/17 06:00:42;;;;;;;6.80;6.10;;;14.80;99.90;;;;;;4928210;29;20444;-85
2022/05/17 06:09:38;;;;;;;7.80;6.67;;;15.10;99.90;;;;;;4968492;23;20498;-85
2022/05/17 06:12:04;;;;;;;6.70;5.53;;;15.20;99.90;;;;;;4930604;28;20438;-86
2022/05/17 06:14:30;;;;;;;7.00;6.30;;;15.30;99.90;;;;;;4947842;28;20446;-88
2022/05/17 06:16:55;;;;;;;6.27;5.77;;;15.40;99.90;;;;;;4935135;28;20451;-87
2022/05/17 06:19:23;;;;;;;6.97;6.00;;;15.60;99.90;;;;;;4931154;28;20844;-87
2022/05/17 06:21:49;;;;;;;7.67;6.67;;;15.60;99.90;;;;;;4920179;28;20202;-88
2022/05/17 06:24:15;;;;;;;7.20;6.50;;;15.80;99.90;;;;;;4942909;28;20451;-88
2022/05/17 06:26:41;;;;;;;6.07;5.57;;;15.80;99.90;;;;;;4936146;28;20450;-89
2022/05/17 06:29:07;;;;;;;6.67;6.03;;;15.80;99.90;;;;;;4937840;28;20453;-91
2022/05/17 06:31:32;;;;;;;10.00;6.17;;;15.90;99.90;;;;;;4954911;28;20765;-93
2022/05/17 06:34:10;;;;;;;7.33;6.30;;;16.00;99.90;;;;;;4940978;28;20192;-93
2022/05/17 06:37:13;;;;;;;6.70;5.80;;;16.10;99.90;;;;;;4951101;28;20191;-91
2022/05/17 06:39:53;;;;;;;6.53;5.67;;;16.20;99.90;;;;;;4941829;28;20482;-88
2022/05/17 06:42:18;;;;;;;8.43;5.77;;;16.10;99.90;;;;;;4950153;28;20438;-88
2022/05/17 06:44:54;;;;;;;6.33;5.83;;;16.40;99.90;;;;;;4936611;28;21690;-92
2022/05/17 06:47:20;;;;;;;6.30;5.73;;;16.50;99.90;;;;;;4948272;28;20202;-91
2022/05/17 06:49:50;;;;;;;8.67;5.70;;;16.60;99.90;;;;;;4937068;28;20439;-88
2022/05/17 06:52:23;;;;;;;6.77;6.07;;;16.70;99.90;;;;;;4941077;28;21057;-89
2022/05/17 06:54:49;;;;;;;6.20;5.60;;;16.80;99.90;;;;;;4934176;28;20443;-89
2022/05/17 06:57:15;;;;;;;6.17;5.60;;;16.90;99.90;;;;;;4936720;28;20619;-86
2022/05/17 06:59:42;;;;;;;9.70;6.53;;;17.00;99.90;;;;;;4942913;28;20495;-85
2022/05/17 07:02:08;;;;;;;7.73;5.10;;;17.20;99.90;;;;;;4936901;28;20502;-83
2022/05/17 07:04:34;;;;;;;4.80;4.40;;;17.30;99.90;;;;;;4952247;28;20952;-85
2022/05/17 07:07:03;;;;;;;5.23;4.73;;;17.40;99.90;;;;;;4937529;28;20187;-88
2022/05/17 07:09:35;;;;;;;6.53;5.10;;;17.50;99.90;;;;;;4915832;28;20450;-91
2022/05/17 07:15:03;;;;;;;5.70;5.10;;;17.70;99.90;;;;;;4923606;28;20612;-88
2022/05/17 07:17:37;;;;;;;6.60;4.90;;;17.90;99.90;;;;;;4945284;28;20449;-90
2022/05/17 07:20:03;;;;;;;6.10;5.33;;;18.00;99.90;;;;;;4947952;28;21027;-89
2022/05/17 07:22:34;;;;;;;6.83;6.13;;;18.10;99.90;;;;;;4938284;28;20462;-90
2022/05/17 07:24:59;;;;;;;8.07;6.27;;;18.20;99.90;;;;;;4959025;28;20488;-83
2022/05/17 07:27:28;;;;;;;8.67;5.50;;;18.50;99.90;;;;;;4952661;28;20455;-95
2022/05/17 07:30:02;;;;;;;6.17;5.60;;;18.50;99.90;;;;;;4935578;28;20191;-90
2022/05/17 07:32:39;;;;;;;6.40;5.80;;;18.70;99.90;;;;;;4947546;28;20446;-89
2022/05/17 07:35:08;;;;;;;6.10;5.60;;;18.70;99.90;;;;;;4949205;28;20474;-89
2022/05/17 07:37:37;;;;;;;6.83;6.13;;;18.90;99.90;;;;;;4934029;28;20443;-88
2022/05/17 07:40:53;;;;;;;6.07;5.67;;;19.10;99.90;;;;;;4950796;28;20475;-86
2022/05/17 07:43:23;;;;;;;5.50;5.00;;;19.20;99.90;;;;;;4940760;28;20442;-85
2022/05/17 07:45:50;;;;;;;7.03;6.37;;;19.10;99.90;;;;;;4956951;28;20478;-84
2022/05/17 07:48:23;;;;;;;5.90;5.40;;;19.40;99.90;;;;;;4952413;28;20454;-86
2022/05/17 07:50:57;;;;;;;7.27;5.90;;;19.50;99.90;;;;;;4954984;28;20442;-85
2022/05/17 07:53:25;;;;;;;8.10;6.67;;;19.70;99.90;;;;;;4944264;28;20574;-87
2022/05/17 07:55:51;;;;;;;10.40;6.70;;;19.70;99.90;;;;;;4937660;28;20986;-88
2022/05/17 07:58:20;;;;;;;10.40;6.67;;;19.70;99.90;;;;;;4955264;28;20521;-89
2022/05/17 08:00:46;;;;;;;7.50;6.87;;;19.60;99.90;;;;;;4956096;28;20341;-87
2022/05/17 08:03:15;;;;;;;6.80;6.30;;;19.80;99.90;;;;;;4950622;28;20455;-86
2022/05/17 08:05:44;;;;;;;7.40;6.70;;;19.80;99.90;;;;;;4935670;28;20193;-86
2022/05/17 08:08:11;;;;;;;7.83;7.13;;;20.00;99.90;;;;;;4933652;28;21403;-85
2022/05/17 08:10:37;;;;;;;7.37;6.67;;;20.20;99.90;;;;;;4944038;28;21015;-86
2022/05/17 08:13:02;;;;;;;6.50;5.90;;;20.30;99.90;;;;;;4942177;28;20443;-85
2022/05/17 08:18:01;;;;;;;7.37;6.67;;;20.80;99.90;;;;;;4920445;28;20227;-95
2022/05/17 08:20:28;;;;;;;8.33;6.80;;;21.00;99.90;;;;;;4939978;28;20473;-83
2022/05/17 08:22:53;;;;;;;6.80;6.27;;;21.20;99.90;;;;;;4921379;29;20459;-83
2022/05/17 08:28:06;;;;;;;6.67;6.13;;;21.10;99.90;;;;;;4914538;29;20300;-83
2022/05/17 08:30:32;;;;;;;7.00;6.30;;;21.10;99.90;;;;;;4912353;29;21046;-83
2022/05/17 08:33:16;;;;;;;7.73;7.00;;;20.90;99.90;;;;;;4925309;28;20798;-86
2022/05/17 08:35:56;;;;;;;7.10;6.23;;;21.10;99.90;;;;;;4928245;28;21318;-84
2022/05/17 08:38:27;;;;;;;6.50;5.47;;;20.90;99.90;;;;;;4932162;28;20471;-82
2022/05/17 08:40:53;;;;;;;6.10;5.60;;;21.10;99.90;;;;;;4928072;28;20443;-83
2022/05/17 08:43:34;;;;;;;6.60;6.00;;;21.50;99.90;;;;;;4935698;28;20439;-83
2022/05/17 08:46:16;;;;;;;6.30;5.70;;;21.80;99.90;;;;;;4912905;29;20179;-83
2022/05/17 08:48:55;;;;;;;5.30;4.70;;;21.90;99.90;;;;;;4921771;28;20518;-83
2022/05/17 08:51:47;;;;;;;5.53;5.03;;;22.00;99.90;;;;;;4910258;29;20506;-87
2022/05/17 08:54:16;;;;;;;6.10;5.50;;;22.20;99.90;;;;;;4911843;29;21026;-84
2022/05/17 08:56:50;;;;;;;8.17;5.23;;;22.20;99.90;;;;;;4921322;28;20445;-86
2022/05/17 08:59:22;;;;;;;5.83;5.30;;;22.00;99.90;;;;;;4920719;28;20487;-83
2022/05/17 09:02:00;;;;;;;5.77;5.13;;;22.00;99.90;;;;;;4904565;29;20432;-84
2022/05/17 09:04:55;;;;;;;5.70;5.20;;;22.30;99.90;;;;;;4937654;28;20506;-86
2022/05/17 09:07:25;;;;;;;5.40;4.70;;;22.50;99.90;;;;;;4939112;28;20511;-88
2022/05/17 09:10:26;;;;;;;10.00;4.83;;;22.50;99.90;;;;;;4941670;28;20474;-85
2022/05/17 09:13:42;;;;;;;5.70;4.70;;;22.80;99.90;;;;;;4924411;29;20450;-87
2022/05/17 09:16:08;;;;;;;5.50;4.73;;;22.90;99.90;;;;;;4928306;29;20495;-86
2022/05/17 09:18:34;;;;;;;5.80;5.20;;;23.10;99.90;;;;;;4927281;29;22071;-86
2022/05/17 09:21:00;;;;;;;5.57;5.07;;;23.50;97.90;;;;;;4922514;29;20483;-86
2022/05/17 09:23:25;;;;;;;6.63;4.90;;;23.50;96.80;;;;;;4928867;29;20234;-86
2022/05/17 09:26:00;;;;;;;5.77;5.30;;;23.60;97.70;;;;;;4939507;28;20207;-87
2022/05/17 09:28:53;;;;;;;6.13;5.50;;;23.10;97.20;;;;;;4948083;28;20223;-86
2022/05/17 09:31:26;;;;;;;5.33;4.83;;;22.80;97.00;;;;;;4924746;29;20432;-85
2022/05/17 09:33:53;;;;;;;5.60;5.10;;;23.10;97.90;;;;;;4946043;28;20696;-85
2022/05/17 09:36:26;;;;;;;7.63;4.63;;;23.30;97.60;;;;;;4943837;28;20442;-86
2022/05/17 09:39:02;;;;;;;5.80;5.30;;;23.70;96.50;;;;;;4948061;28;20488;-86
2022/05/17 09:41:35;;;;;;;6.33;4.97;;;23.70;95.50;;;;;;4943574;28;20503;-86
2022/05/17 09:44:13;;;;;;;5.60;5.20;;;23.80;95.80;;;;;;4945415;28;20443;-86
2022/05/17 09:46:54;;;;;;;5.40;4.97;;;23.90;97.00;;;;;;4944514;28;20436;-85
2022/05/17 09:52:46;;;;;;;5.17;3.93;;;24.40;94.50;;;;;;4935943;29;22262;-87
2022/05/17 09:55:23;;;;;;;5.40;4.90;;;24.80;93.60;;;;;;4946124;28;20476;-87
2022/05/17 09:58:09;;;;;;;5.60;5.07;;;24.50;93.50;;;;;;4946212;28;20445;-86
2022/05/17 10:00:43;;;;;;;5.33;4.83;;;24.30;93.90;;;;;;4926609;29;20534;-85
2022/05/17 10:03:17;;;;;;;5.00;4.50;;;24.00;93.90;;;;;;4944412;28;20795;-86
2022/05/17 10:05:47;;;;;;;5.93;5.43;;;24.40;93.30;;;;;;4943804;28;20548;-86
2022/05/17 10:08:34;;;;;;;6.50;4.73;;;23.80;93.00;;;;;;4927547;29;20783;-87
2022/05/17 10:11:17;;;;;;;5.43;4.93;;;23.80;94.10;;;;;;4926326;29;20504;-86
2022/05/17 10:14:15;;;;;;;8.90;4.40;;;24.20;93.30;;;;;;4945465;28;20439;-86
2022/05/17 10:16:48;;;;;;;7.30;4.60;;;23.10;94.10;;;;;;4930244;29;20610;-85
2022/05/17 10:19:20;;;;;;;5.70;5.03;;;22.80;94.90;;;;;;4947465;28;20479;-86
2022/05/17 10:21:46;;;;;;;6.30;5.13;;;22.80;95.80;;;;;;4944352;28;20694;-86
2022/05/17 10:24:23;;;;;;;7.47;4.53;;;23.20;94.30;;;;;;4951718;28;20643;-87
2022/05/17 10:27:10;;;;;;;4.50;4.20;;;23.60;93.10;;;;;;4941994;28;20189;-86
2022/05/17 10:29:45;;;;;;;5.03;4.60;;;23.60;93.20;;;;;;4931291;29;20448;-89
2022/05/17 10:32:48;;;;;;;4.97;4.47;;;23.60;92.90;;;;;;4932589;29;20427;-87
2022/05/17 10:35:32;;;;;;;4.53;4.13;;;23.90;95.40;;;;;;4929705;29;20475;-86
2022/05/17 10:38:12;;;;;;;5.30;3.97;;;24.30;93.70;;;;;;4929193;29;20443;-87
2022/05/17 10:40:46;;;;;;;4.90;4.23;;;24.30;92.70;;;;;;4942325;28;20458;-87
2022/05/17 10:43:24;;;;;;;5.43;4.37;;;24.00;92.70;;;;;;4942865;28;21233;-87
2022/05/17 10:46:10;;;;;;;6.60;4.03;;;23.50;91.80;;;;;;4930902;29;20439;-86
2022/05/17 10:48:58;;;;;;;5.33;4.93;;;24.00;93.00;;;;;;4930938;29;20447;-86
2022/05/17 10:51:32;;;;;;;7.40;4.97;;;24.70;93.00;;;;;;4942289;28;21106;-87
2022/05/17 10:54:07;;;;;;;4.60;4.13;;;24.80;93.20;;;;;;4930211;29;20462;-88
2022/05/17 10:57:02;;;;;;;4.93;4.40;;;25.00;90.20;;;;;;4934370;29;20496;-86
2022/05/17 11:00:00;;;;;;;4.80;3.57;;;25.30;93.90;;;;;;4943650;28;20478;-86
2022/05/17 11:02:59;;;;;;;4.23;3.93;;;25.30;92.40;;;;;;4945815;28;20444;-85
2022/05/17 11:05:57;;;;;;;4.43;4.10;;;25.50;92.40;;;;;;4946704;28;20435;-87
2022/05/17 11:08:44;;;;;;;4.63;4.23;;;25.80;93.90;;;;;;4944600;28;20435;-86
2022/05/17 11:11:34;;;;;;;3.83;3.53;;;26.30;90.30;;;;;;4949838;28;20443;-86
2022/05/17 11:14:04;;;;;;;4.60;3.87;;;26.50;86.80;;;;;;4945365;28;20438;-90
2022/05/17 11:16:44;;;;;;;4.33;3.87;;;26.50;81.40;;;;;;4927395;29;20499;-86
2022/05/17 11:19:23;;;;;;;4.50;4.10;;;26.60;86.50;;;;;;4950786;28;20490;-86
2022/05/17 11:21:59;;;;;;;5.10;3.63;;;26.80;79.70;;;;;;4944330;28;20431;-86
2022/05/17 11:25:02;;;;;;;3.87;3.47;;;26.60;89.10;;;;;;4943942;28;20864;-86
2022/05/17 11:27:48;;;;;;;4.93;3.90;;;26.90;79.30;;;;;;4951501;28;20447;-86
2022/05/17 11:31:25;;;;;;;3.73;3.43;;;26.80;86.60;;;;;;4949154;28;20443;-90
2022/05/17 11:34:23;;;;;;;3.57;3.27;;;26.40;82.50;;;;;;4809476;29;20457;-89
2022/05/17 11:36:51;;;;;;;3.87;3.00;;;25.90;82.10;;;;;;4946070;28;20467;-87
2022/05/17 11:39:32;;;;;;;3.27;3.07;;;26.20;85.50;;;;;;4945583;28;20883;-86
2022/05/17 11:42:08;;;;;;;3.63;3.30;;;26.60;80.50;;;;;;4932189;29;20549;-89
2022/05/17 11:45:01;;;;;;;5.50;3.20;;;26.50;80.60;;;;;;4930352;28;20458;-88
2022/05/17 11:47:44;;;;;;;3.43;3.13;;;26.50;83.50;;;;;;4931146;29;20530;-89
2022/05/17 11:50:16;;;;;;;3.53;3.23;;;26.60;82.10;;;;;;4945811;28;20443;-88
2022/05/17 11:52:43;;;;;;;3.90;3.50;;;26.10;81.60;;;;;;4948123;28;20472;-88
2022/05/17 11:55:25;;;;;;;3.60;3.30;;;26.00;82.00;;;;;;4933731;29;20476;-89
2022/05/17 11:57:54;;;;;;;65.17;27.17;;;25.90;80.40;;;;;;4946632;28;20523;-88
2022/05/17 12:00:31;;;;;;;4.33;3.93;;;26.10;90.50;;;;;;4927225;29;20480;-91
2022/05/17 12:03:00;;;;;;;11.80;7.20;;;26.30;88.30;;;;;;4943895;28;20542;-90
2022/05/17 12:05:37;;;;;;;11.70;6.20;;;26.20;90.00;;;;;;4929256;29;21069;-88
2022/05/17 12:08:28;;;;;;;13.80;7.63;;;26.10;90.00;;;;;;4924840;29;20475;-87
2022/05/17 12:11:23;;;;;;;22.13;13.20;;;26.10;90.60;;;;;;4930806;29;20439;-87
2022/05/17 12:13:54;;;;;;;8.10;6.33;;;26.20;88.40;;;;;;4929295;29;20458;-86
2022/05/17 12:16:24;;;;;;;3.80;3.50;;;26.40;84.20;;;;;;4936816;28;20745;-85
2022/05/17 12:18:53;;;;;;;4.20;3.77;;;26.70;88.20;;;;;;4922234;29;20495;-84
2022/05/17 12:21:35;;;;;;;7.23;3.40;;;27.20;84.30;;;;;;4925277;29;20443;-85
2022/05/17 12:24:34;;;;;;;3.73;3.43;;;27.50;81.80;;;;;;4927227;29;20454;-90
2022/05/17 12:27:17;;;;;;;3.67;3.37;;;27.00;81.60;;;;;;4932546;29;20444;-92
2022/05/17 12:32:36;;;;;;;4.07;3.00;;;26.70;84.40;;;;;;4926561;29;20442;-90
2022/05/17 12:35:05;;;;;;;3.17;2.87;;;26.50;83.60;;;;;;4924933;29;20820;-85
2022/05/17 12:37:47;;;;;;;3.97;3.30;;;26.40;82.20;;;;;;4926069;29;20511;-91
2022/05/17 12:43:03;;;;;;;3.13;2.93;;;27.20;78.60;;;;;;4929123;29;20542;-87
2022/05/17 12:45:38;;;;;;;6.40;3.50;;;27.30;83.80;;;;;;4928961;29;20463;-88
2022/05/17 12:48:13;;;;;;;5.37;3.77;;;27.30;82.70;;;;;;4936895;28;20442;-87
2022/05/17 12:50:49;;;;;;;3.20;2.93;;;26.90;79.80;;;;;;4925931;29;22544;-85
2022/05/17 12:53:23;;;;;;;3.60;3.30;;;27.30;76.30;;;;;;4924447;29;20518;-86
2022/05/17 12:56:02;;;;;;;3.23;3.03;;;27.40;82.10;;;;;;4924100;29;20447;-86
2022/05/17 12:58:28;;;;;;;3.33;2.97;;;27.10;76.80;;;;;;4947201;28;20474;-86
2022/05/17 13:00:56;;;;;;;2.87;2.67;;;27.10;79.60;;;;;;4940485;28;20452;-87
2022/05/17 13:03:30;;;;;;;3.20;3.00;;;27.10;76.10;;;;;;4948132;28;20489;-89
2022/05/17 13:06:01;;;;;;;3.93;3.47;;;26.50;71.70;;;;;;4942346;28;20544;-87
2022/05/17 13:08:37;;;;;;;2.97;2.77;;;25.80;76.80;;;;;;4940072;28;20458;-86
2022/05/17 13:11:07;;;;;;;3.37;3.07;;;26.30;81.40;;;;;;4938688;28;20507;-86
2022/05/17 13:13:35;;;;;;;3.17;2.97;;;27.30;73.80;;;;;;4944350;28;20876;-85
2022/05/17 13:16:14;;;;;;;3.40;3.10;;;27.70;81.00;;;;;;4949739;28;20454;-89
2022/05/17 13:18:47;;;;;;;3.70;2.87;;;27.90;75.50;;;;;;4925846;29;21137;-85
2022/05/17 13:21:30;;;;;;;3.10;2.80;;;28.10;78.20;;;;;;4923476;28;20444;-87
2022/05/17 13:24:00;;;;;;;3.00;2.70;;;28.30;75.50;;;;;;4942809;28;20462;-87
2022/05/17 13:26:31;;;;;;;2.77;2.40;;;28.60;75.20;;;;;;4928373;29;20927;-86
2022/05/17 13:29:34;;;;;;;3.00;2.53;;;28.50;69.10;;;;;;4943898;28;20483;-87
2022/05/17 13:32:19;;;;;;;3.00;2.60;;;28.00;68.30;;;;;;4946693;28;20489;-88
2022/05/17 13:35:05;;;;;;;5.07;2.70;;;27.10;76.50;;;;;;4945994;28;20456;-88